createdAt,value
2023-03-02T00:01:51.215Z,100045.14
2023-03-02T00:04:28.408Z,100050.77
2023-03-02T00:07:00.722Z,100054.21
2023-03-02T00:09:30.143Z,100053.33
2023-03-02T00:11:58.154Z,100052.45
2023-03-02T00:14:26.100Z,100055.55
2023-03-02T00:16:53.923Z,100053.80
2023-03-02T00:19:21.830Z,100052.59
2023-03-02T00:21:49.857Z,100053.09
2023-03-02T00:24:17.736Z,100046.16
2023-03-02T00:26:45.815Z,100044.10
2023-03-02T00:29:14.262Z,100043.56
2023-03-02T00:31:42.188Z,100043.20
2023-03-02T00:34:10.137Z,100041.48
2023-03-02T00:36:38.084Z,100038.20
2023-03-02T00:39:06.016Z,100035.09
2023-03-02T00:41:33.914Z,100031.97
2023-03-02T00:44:02.031Z,100030.58
2023-03-02T00:46:30.158Z,100026.55
2023-03-02T00:48:58.246Z,100023.75
2023-03-02T00:51:26.168Z,100017.52
2023-03-02T00:53:54.054Z,100012.84
2023-03-02T00:56:21.937Z,100011.23
2023-03-02T00:58:50.285Z,100006.55
2023-03-02T01:01:18.964Z,100006.33
2023-03-02T01:03:49.807Z,100004.39
2023-03-02T01:06:19.626Z,100005.61
2023-03-02T01:08:47.925Z,100003.71
2023-03-02T01:11:19.156Z,100000.58
2023-03-02T01:13:47.682Z,99994.02
2023-03-02T01:16:16.018Z,99992.08
2023-03-02T01:18:44.120Z,99989.48
2023-03-02T01:21:14.715Z,99985.67
2023-03-02T01:23:42.986Z,99985.84
2023-03-02T01:26:10.974Z,99982.71
2023-03-02T01:28:38.909Z,99985.11
2023-03-02T01:31:06.863Z,99982.52
2023-03-02T01:33:35.270Z,99981.45
2023-03-02T01:36:03.433Z,99978.14
2023-03-02T01:38:31.488Z,99974.85
2023-03-02T01:40:59.401Z,99970.55
2023-03-02T01:43:29.447Z,99967.45
2023-03-02T01:46:26.669Z,99967.44
2023-03-02T01:49:12.823Z,99964.52
2023-03-02T01:51:51.788Z,99962.44
2023-03-02T01:54:23.271Z,99963.27
2023-03-02T01:56:59.502Z,99958.60
2023-03-02T01:59:30.737Z,99953.58
2023-03-02T02:02:02.800Z,99954.92
2023-03-02T02:04:32.991Z,99952.33
2023-03-02T02:07:03.850Z,99954.57
2023-03-02T02:09:36.583Z,99951.47
2023-03-02T02:12:05.894Z,99945.80
2023-03-02T02:14:35.038Z,99943.40
2023-03-02T02:17:03.060Z,99945.48
2023-03-02T02:19:49.857Z,99942.21
2023-03-02T02:22:28.618Z,99934.85
2023-03-02T02:25:02.655Z,99936.23
2023-03-02T02:27:33.604Z,99935.73
2023-03-02T02:30:04.525Z,99939.70
2023-03-02T02:32:36.548Z,99938.16
2023-03-02T02:35:11.369Z,99936.44
2023-03-02T02:37:44.822Z,99937.98
2023-03-02T02:40:49.479Z,99934.86
2023-03-02T02:43:21.398Z,99937.06
2023-03-02T02:45:53.895Z,99933.07
2023-03-02T02:48:24.331Z,99936.66
2023-03-02T02:51:00.226Z,99935.57
2023-03-02T02:53:42.988Z,99931.38
2023-03-02T02:56:13.156Z,99929.61
2023-03-02T02:58:49.196Z,99931.97
2023-03-02T03:01:20.544Z,99932.77
2023-03-02T03:04:01.680Z,99929.48
2023-03-02T03:06:42.221Z,99928.94
2023-03-02T03:09:11.864Z,99927.52
2023-03-02T03:11:50.446Z,99929.19
2023-03-02T03:14:22.330Z,99927.63
2023-03-02T03:16:52.352Z,99928.15
2023-03-02T03:19:26.350Z,99929.17
2023-03-02T03:21:57.899Z,99930.20
2023-03-02T03:24:28.666Z,99930.65
2023-03-02T03:26:57.959Z,99921.49
2023-03-02T03:29:28.576Z,99924.27
2023-03-02T03:32:01.082Z,99925.79
2023-03-02T03:34:30.991Z,99926.13
2023-03-02T03:37:01.845Z,99925.08
2023-03-02T03:39:32.954Z,99918.52
2023-03-02T03:42:01.419Z,99916.98
2023-03-02T03:44:30.131Z,99918.18
2023-03-02T03:46:58.681Z,99918.86
2023-03-02T03:49:27.050Z,99921.77
2023-03-02T03:51:55.709Z,99928.13
2023-03-02T03:54:24.106Z,99919.48
2023-03-02T03:56:52.160Z,99921.69
2023-03-02T03:59:23.215Z,99921.82
2023-03-02T04:02:00.047Z,99915.25
2023-03-02T04:04:35.555Z,99915.04
2023-03-02T04:07:10.227Z,99915.85
2023-03-02T04:09:39.314Z,99915.13
2023-03-02T04:12:09.705Z,99911.98
2023-03-02T04:14:38.912Z,99910.42
2023-03-02T04:17:07.155Z,99910.11
2023-03-02T04:19:38.079Z,99907.86
2023-03-02T04:22:06.652Z,99902.04
2023-03-02T04:24:35.243Z,99895.53
2023-03-02T04:27:04.710Z,99892.45
2023-03-02T04:29:34.489Z,99892.48
2023-03-02T04:32:03.968Z,99895.61
2023-03-02T04:34:34.123Z,99897.34
2023-03-02T04:37:03.024Z,99894.27
2023-03-02T04:39:31.048Z,99892.38
2023-03-02T04:41:59.248Z,99892.23
2023-03-02T04:44:27.160Z,99890.52
2023-03-02T04:46:55.097Z,99889.02
2023-03-02T04:49:23.082Z,99883.38
2023-03-02T04:51:51.029Z,99880.46
2023-03-02T04:54:22.714Z,99883.58
2023-03-02T04:56:51.677Z,99882.20
2023-03-02T04:59:24.145Z,99885.30
2023-03-02T05:01:55.048Z,99887.54
2023-03-02T05:04:23.342Z,99888.29
2023-03-02T05:06:51.246Z,99888.70
2023-03-02T05:09:19.666Z,99888.09
2023-03-02T05:11:47.677Z,99893.36
2023-03-02T05:14:15.558Z,99892.00
2023-03-02T05:16:43.600Z,99888.23
2023-03-02T05:19:12.551Z,99889.96
2023-03-02T05:21:40.799Z,99892.05
2023-03-02T05:24:08.767Z,99891.54
2023-03-02T05:26:37.434Z,99889.84
2023-03-02T05:29:06.020Z,99889.68
2023-03-02T05:31:42.867Z,99887.83
2023-03-02T05:34:12.699Z,99889.06
2023-03-02T05:36:40.715Z,99891.66
2023-03-02T05:39:09.472Z,99891.11
2023-03-02T05:41:38.048Z,99889.20
2023-03-02T05:44:09.461Z,99885.39
2023-03-02T05:46:38.073Z,99885.06
2023-03-02T05:49:06.415Z,99883.55
2023-03-02T05:51:34.340Z,99883.45
2023-03-02T05:54:02.355Z,99884.38
2023-03-02T05:56:30.462Z,99885.64
2023-03-02T05:58:58.536Z,99893.66
2023-03-02T06:01:26.514Z,99892.58
2023-03-02T06:03:54.353Z,99895.45
2023-03-02T06:06:22.262Z,99892.86
2023-03-02T06:08:50.151Z,99899.19
2023-03-02T06:11:18.040Z,99898.62
2023-03-02T06:13:45.978Z,99897.31
2023-03-02T06:16:13.974Z,99901.69
2023-03-02T06:18:41.907Z,99900.23
2023-03-02T06:21:10.094Z,99896.91
2023-03-02T06:23:38.079Z,99896.54
2023-03-02T06:26:10.679Z,99898.54
2023-03-02T06:28:51.562Z,99898.34
2023-03-02T06:31:21.861Z,99897.08
2023-03-02T06:33:49.945Z,99900.45
2023-03-02T06:36:18.247Z,99904.52
2023-03-02T06:38:46.186Z,99909.28
2023-03-02T06:41:14.155Z,99911.95
2023-03-02T06:43:42.382Z,99915.54
2023-03-02T06:46:11.299Z,99918.04
2023-03-02T06:48:39.288Z,99915.52
2023-03-02T06:51:08.018Z,99908.31
2023-03-02T06:53:35.914Z,99907.34
2023-03-02T06:56:04.465Z,99902.32
2023-03-02T06:58:32.379Z,99904.91
2023-03-02T07:01:00.385Z,99908.52
2023-03-02T07:03:28.408Z,99908.70
2023-03-02T07:05:56.312Z,99905.42
2023-03-02T07:08:24.283Z,99907.00
2023-03-02T07:10:52.353Z,99901.99
2023-03-02T07:13:20.480Z,99900.09
2023-03-02T07:15:48.435Z,99900.77
2023-03-02T07:18:16.365Z,99902.83
2023-03-02T07:20:44.238Z,99905.41
2023-03-02T07:23:12.261Z,99903.13
2023-03-02T07:25:40.165Z,99906.02
2023-03-02T07:28:08.053Z,99905.27
2023-03-02T07:30:36.025Z,99901.55
2023-03-02T07:33:03.952Z,99894.73
2023-03-02T07:35:31.836Z,99893.43
2023-03-02T07:37:59.738Z,99887.46
2023-03-02T07:40:27.650Z,99891.38
2023-03-02T07:42:55.534Z,99889.03
2023-03-02T07:45:25.038Z,99886.30
2023-03-02T07:47:53.052Z,99886.17
2023-03-02T07:50:20.954Z,99888.54
2023-03-02T07:52:48.813Z,99885.98
2023-03-02T07:55:16.752Z,99885.36
2023-03-02T07:57:45.953Z,99888.73
2023-03-02T08:00:14.863Z,99886.92
2023-03-02T08:02:43.303Z,99886.33
2023-03-02T08:05:12.222Z,99884.64
2023-03-02T08:07:43.987Z,99882.64
2023-03-02T08:10:12.078Z,99880.27
2023-03-02T08:12:40.492Z,99879.20
2023-03-02T08:15:09.690Z,99876.54
2023-03-02T08:17:37.641Z,99872.67
2023-03-02T08:20:06.301Z,99872.05
2023-03-02T08:22:34.403Z,99874.65
2023-03-02T08:25:02.762Z,99874.42
2023-03-02T08:27:30.712Z,99874.75
2023-03-02T08:29:58.655Z,99872.14
2023-03-02T08:32:26.519Z,99871.98
2023-03-02T08:34:54.688Z,99875.48
2023-03-02T08:37:22.571Z,99877.98
2023-03-02T08:39:51.826Z,99873.86
2023-03-02T08:42:19.803Z,99874.96
2023-03-02T08:44:47.675Z,99873.44
2023-03-02T08:47:15.635Z,99875.10
2023-03-02T08:49:43.596Z,99872.24
2023-03-02T08:52:11.491Z,99870.83
2023-03-02T08:54:40.745Z,99876.34
2023-03-02T08:57:11.893Z,99872.55
2023-03-02T08:59:40.243Z,99873.91
2023-03-02T09:02:11.285Z,99874.60
2023-03-02T09:04:39.496Z,99872.25
2023-03-02T09:07:07.519Z,99874.80
2023-03-02T09:09:35.906Z,99876.44
2023-03-02T09:12:03.998Z,99872.73
2023-03-02T09:14:31.868Z,99867.53
2023-03-02T09:16:59.897Z,99867.67
2023-03-02T09:19:27.933Z,99863.29
2023-03-02T09:21:55.861Z,99863.67
2023-03-02T09:24:23.738Z,99866.48
2023-03-02T09:26:51.679Z,99866.15
2023-03-02T09:29:19.539Z,99860.39
2023-03-02T09:31:47.462Z,99859.89
2023-03-02T09:34:15.290Z,99855.01
2023-03-02T09:36:43.216Z,99856.68
2023-03-02T09:39:12.559Z,99854.85
2023-03-02T09:41:57.087Z,99855.77
2023-03-02T09:45:00.250Z,99853.98
2023-03-02T09:47:38.666Z,99854.18
2023-03-02T09:50:06.519Z,99851.73
2023-03-02T09:53:03.708Z,99850.87
2023-03-02T09:55:36.298Z,99856.86
2023-03-02T09:58:16.220Z,99850.57
2023-03-02T10:00:45.970Z,99848.21
2023-03-02T10:03:20.446Z,99848.16
2023-03-02T10:05:51.202Z,99843.46
2023-03-02T10:08:22.854Z,99841.23
2023-03-02T10:11:12.794Z,99841.58
2023-03-02T10:13:47.878Z,99841.45
2023-03-02T10:16:31.673Z,99839.83
2023-03-02T10:19:12.633Z,99834.40
2023-03-02T10:21:46.099Z,99833.84
2023-03-02T10:24:29.197Z,99830.61
2023-03-02T10:27:28.815Z,99830.49
2023-03-02T10:30:08.051Z,99826.36
2023-03-02T10:32:41.960Z,99821.69
2023-03-02T10:35:29.910Z,99823.41
2023-03-02T10:38:04.623Z,99823.96
2023-03-02T10:40:52.928Z,99824.31
2023-03-02T10:43:45.525Z,99820.67
2023-03-02T10:46:14.434Z,99822.74
2023-03-02T10:48:53.194Z,99822.15
2023-03-02T10:51:32.937Z,99817.64
2023-03-02T10:54:07.151Z,99816.48
2023-03-02T10:56:35.894Z,99811.65
2023-03-02T10:59:27.899Z,99812.45
2023-03-02T11:02:18.605Z,99809.45
2023-03-02T11:04:46.654Z,99804.17
2023-03-02T11:07:20.477Z,99799.08
2023-03-02T11:09:57.395Z,99798.42
2023-03-02T11:12:25.500Z,99793.02
2023-03-02T11:15:27.133Z,99783.84
2023-03-02T11:18:15.230Z,99780.48
2023-03-02T11:20:47.186Z,99777.57
2023-03-02T11:23:33.351Z,99772.89
2023-03-02T11:26:08.019Z,99766.88
2023-03-02T11:28:43.339Z,99763.84
2023-03-02T11:31:22.443Z,99764.11
2023-03-02T11:34:07.924Z,99765.77
2023-03-02T11:37:03.671Z,99762.95
2023-03-02T11:39:55.057Z,99755.24
2023-03-02T11:42:30.153Z,99750.89
2023-03-02T11:45:03.741Z,99748.16
2023-03-02T11:47:32.930Z,99741.27
2023-03-02T11:50:05.383Z,99738.39
2023-03-02T11:52:39.023Z,99734.42
2023-03-02T11:55:17.390Z,99726.33
2023-03-02T11:57:49.955Z,99725.76
2023-03-02T12:00:29.891Z,99725.30
2023-03-02T12:03:03.058Z,99724.45
2023-03-02T12:05:35.717Z,99721.48
2023-03-02T12:08:28.519Z,99719.35
2023-03-02T12:11:27.064Z,99717.22
2023-03-02T12:13:54.891Z,99711.28
2023-03-02T12:16:35.944Z,99707.70
2023-03-02T12:19:17.516Z,99704.19
2023-03-02T12:22:06.994Z,99700.23
2023-03-02T12:24:37.741Z,99698.49
2023-03-02T12:27:21.009Z,99688.29
2023-03-02T12:29:55.471Z,99686.91
2023-03-02T12:32:27.404Z,99686.88
2023-03-02T12:35:01.624Z,99682.23
2023-03-02T12:37:37.614Z,99681.56
2023-03-02T12:40:14.767Z,99678.36
2023-03-02T12:43:01.336Z,99677.49
2023-03-02T12:46:03.589Z,99671.46
2023-03-02T12:49:01.956Z,99670.52
2023-03-02T12:51:43.892Z,99663.70
2023-03-02T12:54:20.693Z,99661.55
2023-03-02T12:56:49.572Z,99654.01
2023-03-02T12:59:23.509Z,99650.78
2023-03-02T13:01:52.363Z,99647.84
2023-03-02T13:04:26.048Z,99649.88
2023-03-02T13:06:54.558Z,99649.52
2023-03-02T13:09:23.137Z,99650.42
2023-03-02T13:11:54.809Z,99646.71
2023-03-02T13:14:28.151Z,99642.04
2023-03-02T13:17:03.265Z,99637.36
2023-03-02T13:19:32.265Z,99632.14
2023-03-02T13:22:00.753Z,99630.32
2023-03-02T13:24:51.499Z,99628.20
2023-03-02T13:27:22.731Z,99627.49
2023-03-02T13:29:57.892Z,99626.83
2023-03-02T13:32:35.043Z,99622.72
2023-03-02T13:35:03.546Z,99621.74
2023-03-02T13:37:39.333Z,99621.75
2023-03-02T13:40:27.365Z,99619.29
2023-03-02T13:42:55.725Z,99618.18
2023-03-02T13:45:23.807Z,99616.41
2023-03-02T13:47:53.698Z,99614.13
2023-03-02T13:50:27.953Z,99616.95
2023-03-02T13:52:58.638Z,99610.45
2023-03-02T13:55:26.786Z,99604.61
2023-03-02T13:57:55.981Z,99604.91
2023-03-02T14:00:31.099Z,99606.67
2023-03-02T14:02:59.380Z,99602.89
2023-03-02T14:05:33.279Z,99603.91
2023-03-02T14:08:06.950Z,99598.31
2023-03-02T14:10:34.847Z,99597.77
2023-03-02T14:13:08.557Z,99599.99
2023-03-02T14:15:42.226Z,99596.29
2023-03-02T14:18:16.163Z,99593.56
2023-03-02T14:20:44.073Z,99589.00
2023-03-02T14:23:12.097Z,99582.84
2023-03-02T14:25:40.127Z,99580.79
2023-03-02T14:28:13.005Z,99580.67
2023-03-02T14:30:44.109Z,99577.42
2023-03-02T14:33:17.595Z,99573.21
2023-03-02T14:35:45.832Z,99569.67
2023-03-02T14:38:13.996Z,99568.34
2023-03-02T14:40:42.072Z,99570.77
2023-03-02T14:43:10.418Z,99565.58
2023-03-02T14:45:38.335Z,99564.29
2023-03-02T14:48:06.233Z,99560.92
2023-03-02T14:50:38.552Z,99557.30
2023-03-02T14:53:12.644Z,99557.34
2023-03-02T14:55:42.186Z,99551.85
2023-03-02T14:58:32.683Z,99552.15
2023-03-02T15:01:01.203Z,99549.90
2023-03-02T15:03:29.437Z,99550.40
2023-03-02T15:06:02.075Z,99549.08
2023-03-02T15:08:30.489Z,99549.17
2023-03-02T15:10:58.547Z,99545.55
2023-03-02T15:13:26.572Z,99545.02
2023-03-02T15:15:54.569Z,99540.28
2023-03-02T15:18:22.566Z,99538.39
2023-03-02T15:20:50.666Z,99537.45
2023-03-02T15:23:18.685Z,99537.83
2023-03-02T15:25:46.561Z,99541.33
2023-03-02T15:28:14.558Z,99543.45
2023-03-02T15:30:42.499Z,99542.98
2023-03-02T15:33:10.509Z,99538.99
2023-03-02T15:35:40.197Z,99535.10
2023-03-02T15:38:08.294Z,99537.50
2023-03-02T15:40:39.124Z,99537.97
2023-03-02T15:43:07.172Z,99534.77
2023-03-02T15:45:35.110Z,99537.23
2023-03-02T15:48:04.075Z,99537.45
2023-03-02T15:50:32.084Z,99534.85
2023-03-02T15:53:00.009Z,99533.10
2023-03-02T15:55:27.994Z,99534.48
2023-03-02T15:57:58.244Z,99532.91
2023-03-02T16:00:27.882Z,99534.33
2023-03-02T16:02:55.955Z,99532.32
2023-03-02T16:05:24.152Z,99530.52
2023-03-02T16:07:53.702Z,99529.55
2023-03-02T16:10:24.370Z,99533.00
2023-03-02T16:12:52.386Z,99534.05
2023-03-02T16:15:20.470Z,99532.52
2023-03-02T16:17:48.505Z,99532.23
2023-03-02T16:20:16.677Z,99527.24
2023-03-02T16:22:44.844Z,99528.90
2023-03-02T16:25:13.047Z,99534.64
2023-03-02T16:27:41.156Z,99533.55
2023-03-02T16:30:09.903Z,99533.51
2023-03-02T16:32:38.657Z,99534.36
2023-03-02T16:35:08.762Z,99533.92
2023-03-02T16:37:37.065Z,99538.36
2023-03-02T16:40:05.597Z,99538.93
2023-03-02T16:42:33.657Z,99542.67
2023-03-02T16:45:01.517Z,99541.89
2023-03-02T16:47:29.387Z,99542.27
2023-03-02T16:49:58.131Z,99544.76
2023-03-02T16:52:26.102Z,99550.54
2023-03-02T16:54:54.220Z,99552.65
2023-03-02T16:57:22.182Z,99558.42
2023-03-02T16:59:50.261Z,99562.60
2023-03-02T17:02:18.205Z,99560.87
2023-03-02T17:04:46.273Z,99562.27
2023-03-02T17:07:14.204Z,99560.68
2023-03-02T17:09:42.103Z,99563.61
2023-03-02T17:12:10.113Z,99567.64
2023-03-02T17:14:38.006Z,99567.81
2023-03-02T17:17:06.053Z,99568.29
2023-03-02T17:19:34.327Z,99570.48
2023-03-02T17:22:04.263Z,99567.95
2023-03-02T17:24:33.415Z,99570.04
2023-03-02T17:27:01.505Z,99571.59
2023-03-02T17:29:29.558Z,99573.25
2023-03-02T17:31:57.707Z,99570.01
2023-03-02T17:34:31.282Z,99570.60
2023-03-02T17:37:00.904Z,99574.96
2023-03-02T17:39:29.298Z,99573.81
2023-03-02T17:41:57.404Z,99577.35
2023-03-02T17:44:25.540Z,99589.66
2023-03-02T17:46:53.970Z,99593.21
2023-03-02T17:49:22.133Z,99595.39
2023-03-02T17:51:50.205Z,99596.73
2023-03-02T17:54:18.175Z,99594.13
2023-03-02T17:56:46.164Z,99594.58
2023-03-02T17:59:14.486Z,99591.87
2023-03-02T18:01:44.159Z,99592.64
2023-03-02T18:04:12.515Z,99596.55
2023-03-02T18:06:40.588Z,99593.85
2023-03-02T18:09:08.571Z,99597.41
2023-03-02T18:11:36.810Z,99598.45
2023-03-02T18:14:04.774Z,99598.38
2023-03-02T18:16:34.134Z,99593.80
2023-03-02T18:19:03.141Z,99596.69
2023-03-02T18:21:31.439Z,99600.29
2023-03-02T18:23:59.626Z,99601.06
2023-03-02T18:26:27.762Z,99602.69
2023-03-02T18:28:55.784Z,99603.27
2023-03-02T18:31:24.102Z,99603.67
2023-03-02T18:33:52.355Z,99606.37
2023-03-02T18:36:20.418Z,99604.35
2023-03-02T18:38:48.799Z,99608.55
2023-03-02T18:41:16.872Z,99611.03
2023-03-02T18:43:44.862Z,99613.86
2023-03-02T18:46:19.769Z,99619.80
2023-03-02T18:48:50.266Z,99619.84
2023-03-02T18:51:19.694Z,99620.60
2023-03-02T18:53:48.773Z,99618.92
2023-03-02T18:56:17.640Z,99621.42
2023-03-02T18:58:46.706Z,99622.67
2023-03-02T19:01:15.061Z,99623.58
2023-03-02T19:03:45.816Z,99624.80
2023-03-02T19:06:15.012Z,99627.44
2023-03-02T19:08:43.163Z,99633.03
2023-03-02T19:11:11.966Z,99636.38
2023-03-02T19:13:39.978Z,99637.77
2023-03-02T19:16:08.490Z,99635.86
2023-03-02T19:18:37.897Z,99636.02
2023-03-02T19:21:06.505Z,99634.08
2023-03-02T19:23:34.722Z,99634.23
2023-03-02T19:26:04.953Z,99633.02
2023-03-02T19:28:35.102Z,99628.70
2023-03-02T19:31:06.643Z,99628.36
2023-03-02T19:33:35.789Z,99626.82
2023-03-02T19:36:05.144Z,99630.65
2023-03-02T19:38:33.288Z,99634.34
2023-03-02T19:41:02.123Z,99637.52
2023-03-02T19:43:30.386Z,99639.11
2023-03-02T19:45:58.721Z,99638.08
2023-03-02T19:48:26.906Z,99640.48
2023-03-02T19:50:54.988Z,99637.89
2023-03-02T19:53:23.307Z,99637.02
2023-03-02T19:55:52.657Z,99639.80
2023-03-02T19:58:21.546Z,99642.21
2023-03-02T20:00:49.732Z,99641.33
2023-03-02T20:03:17.676Z,99640.91
2023-03-02T20:05:45.617Z,99639.49
2023-03-02T20:08:14.851Z,99637.46
2023-03-02T20:10:49.435Z,99638.89
2023-03-02T20:13:17.976Z,99635.44
2023-03-02T20:15:47.308Z,99636.48
2023-03-02T20:18:19.393Z,99635.72
2023-03-02T20:20:48.638Z,99642.65
2023-03-02T20:23:17.618Z,99643.45
2023-03-02T20:25:48.229Z,99643.16
2023-03-02T20:28:22.553Z,99645.95
2023-03-02T20:30:58.744Z,99654.66
2023-03-02T20:33:41.667Z,99657.45
2023-03-02T20:36:11.566Z,99654.17
2023-03-02T20:38:50.365Z,99648.79
2023-03-02T20:41:18.923Z,99650.02
2023-03-02T20:43:47.063Z,99643.44
2023-03-02T20:46:24.238Z,99644.45
2023-03-02T20:48:52.352Z,99643.05
2023-03-02T20:51:21.877Z,99642.05
2023-03-02T20:53:50.182Z,99644.68
2023-03-02T20:56:18.754Z,99648.30
2023-03-02T20:58:47.667Z,99647.09
2023-03-02T21:01:17.072Z,99647.77
2023-03-02T21:03:45.368Z,99646.54
2023-03-02T21:06:15.250Z,99645.70
2023-03-02T21:08:44.012Z,99642.95
2023-03-02T21:11:16.391Z,99640.34
2023-03-02T21:13:47.096Z,99639.13
2023-03-02T21:16:27.481Z,99638.42
2023-03-02T21:18:56.390Z,99637.50
2023-03-02T21:21:39.425Z,99631.38
2023-03-02T21:24:12.784Z,99624.97
2023-03-02T21:26:41.774Z,99623.05
2023-03-02T21:29:12.109Z,99615.75
2023-03-02T21:31:42.339Z,99615.47
2023-03-02T21:34:14.342Z,99610.71
2023-03-02T21:36:42.832Z,99602.71
2023-03-02T21:39:12.050Z,99599.84
2023-03-02T21:41:40.409Z,99597.13
2023-03-02T21:44:08.996Z,99596.16
2023-03-02T21:46:38.697Z,99596.93
2023-03-02T21:49:07.180Z,99596.31
2023-03-02T21:51:35.384Z,99597.95
2023-03-02T21:54:04.064Z,99594.04
2023-03-02T21:56:31.952Z,99589.94
2023-03-02T21:59:00.005Z,99584.65
2023-03-02T22:01:29.797Z,99579.21
2023-03-02T22:03:58.527Z,99578.48
2023-03-02T22:06:30.298Z,99577.02
2023-03-02T22:08:59.018Z,99578.67
2023-03-02T22:11:32.793Z,99583.70
2023-03-02T22:14:08.185Z,99585.58
2023-03-02T22:16:39.597Z,99583.48
2023-03-02T22:19:22.571Z,99588.31
2023-03-02T22:21:52.142Z,99588.47
2023-03-02T22:24:29.142Z,99584.78
2023-03-02T22:27:27.591Z,99584.60
2023-03-02T22:29:59.186Z,99584.79
2023-03-02T22:32:30.480Z,99583.92
2023-03-02T22:35:00.551Z,99582.03
2023-03-02T22:37:33.057Z,99584.65
2023-03-02T22:40:11.854Z,99581.50
2023-03-02T22:42:40.058Z,99582.70
2023-03-02T22:45:16.869Z,99577.32
2023-03-02T22:47:49.128Z,99574.02
2023-03-02T22:50:29.131Z,99574.26
2023-03-02T22:53:02.178Z,99568.73
2023-03-02T22:55:39.903Z,99567.58
2023-03-02T22:58:32.166Z,99570.25
2023-03-02T23:01:01.965Z,99569.23
2023-03-02T23:03:39.906Z,99569.20
2023-03-02T23:06:23.679Z,99571.31
2023-03-02T23:08:53.401Z,99566.17
2023-03-02T23:11:23.256Z,99566.42
2023-03-02T23:13:52.459Z,99563.51
2023-03-02T23:16:24.196Z,99559.61
2023-03-02T23:18:54.993Z,99553.11
2023-03-02T23:21:28.286Z,99548.08
2023-03-02T23:23:56.489Z,99540.14
2023-03-02T23:26:24.411Z,99540.16
2023-03-02T23:28:52.311Z,99538.40
2023-03-02T23:31:21.362Z,99530.68
2023-03-02T23:33:49.452Z,99527.87
2023-03-02T23:36:17.689Z,99524.70
2023-03-02T23:38:45.591Z,99524.15
2023-03-02T23:41:14.247Z,99526.55
2023-03-02T23:43:42.102Z,99529.61
2023-03-02T23:46:14.122Z,99533.58
2023-03-02T23:48:43.179Z,99531.88
2023-03-02T23:51:11.126Z,99538.45
2023-03-02T23:53:39.102Z,99537.10
2023-03-02T23:56:07.662Z,99528.88
2023-03-02T23:58:35.605Z,99531.28
